createdAt,value
2023-07-21T00:00:32.101Z,100856.16
2023-07-21T00:02:58.948Z,100873.50
2023-07-21T00:05:25.949Z,100875.66
2023-07-21T00:07:52.537Z,100879.13
2023-07-21T00:10:19.156Z,100839.47
2023-07-21T00:12:49.719Z,100873.00
2023-07-21T00:15:19.531Z,100867.34
2023-07-21T00:17:50.641Z,100868.94
2023-07-21T00:20:23.866Z,100868.94
2023-07-21T00:22:50.969Z,100806.69
2023-07-21T00:25:17.999Z,100863.00
2023-07-21T00:27:45.685Z,100879.97
2023-07-21T00:30:13.321Z,100867.91
2023-07-21T00:32:42.719Z,100862.00
2023-07-21T00:35:10.184Z,100860.91
2023-07-21T00:37:38.477Z,100847.97
2023-07-21T00:40:06.285Z,100848.19
2023-07-21T00:42:33.128Z,100846.56
2023-07-21T00:44:59.832Z,100832.97
2023-07-21T00:47:27.629Z,100823.38
2023-07-21T00:49:54.845Z,100825.53
2023-07-21T00:52:21.652Z,100811.50
2023-07-21T00:54:48.840Z,100765.81
2023-07-21T00:57:19.387Z,100764.97
2023-07-21T00:59:48.063Z,100761.63
2023-07-21T01:02:14.896Z,100771.69
2023-07-21T01:04:41.820Z,100767.59
2023-07-21T01:07:10.550Z,100767.91
2023-07-21T01:09:39.676Z,100733.69
2023-07-21T01:12:07.698Z,100707.69
2023-07-21T01:14:38.526Z,100728.28
2023-07-21T01:17:08.447Z,100609.19
2023-07-21T01:19:37.529Z,100700.25
2023-07-21T01:22:10.070Z,100681.47
2023-07-21T01:24:52.766Z,100682.41
2023-07-21T01:27:23.019Z,100678.22
2023-07-21T01:29:51.560Z,100682.66
2023-07-21T01:32:23.554Z,100667.94
2023-07-21T01:34:51.465Z,100625.59
2023-07-21T01:37:19.780Z,100647.88
2023-07-21T01:39:47.561Z,100652.31
2023-07-21T01:42:14.562Z,100635.75
2023-07-21T01:44:41.290Z,100614.84
2023-07-21T01:47:08.166Z,100624.63
2023-07-21T01:49:34.747Z,100621.91
2023-07-21T01:52:02.222Z,100567.91
2023-07-21T01:54:40.744Z,100576.81
2023-07-21T01:57:09.013Z,100473.81
2023-07-21T01:59:36.175Z,100568.28
2023-07-21T02:02:03.120Z,100570.00
2023-07-21T02:04:29.897Z,100564.88
2023-07-21T02:06:56.585Z,100563.03
2023-07-21T02:09:23.612Z,100554.41
2023-07-21T02:11:50.297Z,100525.81
2023-07-21T02:14:17.580Z,100516.16
2023-07-21T02:16:44.373Z,100540.13
2023-07-21T02:19:11.134Z,100547.34
2023-07-21T02:21:37.814Z,100533.97
2023-07-21T02:24:04.881Z,100475.47
2023-07-21T02:26:31.667Z,100486.56
2023-07-21T02:28:58.275Z,100495.31
2023-07-21T02:31:24.952Z,100480.22
2023-07-21T02:33:51.837Z,100499.94
2023-07-21T02:36:18.719Z,100499.94
2023-07-21T02:38:45.343Z,100499.47
2023-07-21T02:41:12.180Z,100508.59
2023-07-21T02:43:39.263Z,100503.31
2023-07-21T02:46:06.020Z,100444.59
2023-07-21T02:48:35.307Z,100486.50
2023-07-21T02:51:02.071Z,100468.91
2023-07-21T02:53:30.551Z,100480.31
2023-07-21T02:55:57.857Z,100477.13
2023-07-21T02:58:27.638Z,100416.94
2023-07-21T03:00:55.882Z,100462.81
2023-07-21T03:03:25.962Z,100423.13
2023-07-21T03:05:54.062Z,100455.50
2023-07-21T03:08:28.425Z,100459.75
2023-07-21T03:10:56.791Z,100431.38
2023-07-21T03:13:25.801Z,100432.56
2023-07-21T03:15:56.094Z,100440.19
2023-07-21T03:18:23.658Z,100429.13
2023-07-21T03:20:50.705Z,100461.53
2023-07-21T03:23:19.933Z,100469.84
2023-07-21T03:25:47.700Z,100457.72
2023-07-21T03:28:14.353Z,100469.91
2023-07-21T03:30:42.349Z,100470.84
2023-07-21T03:33:09.106Z,100451.28
2023-07-21T03:35:35.970Z,100455.25
2023-07-21T03:38:02.962Z,100385.41
2023-07-21T03:40:29.852Z,100449.22
2023-07-21T03:42:56.439Z,100452.53
2023-07-21T03:45:24.467Z,100371.34
2023-07-21T03:47:51.283Z,100433.44
2023-07-21T03:50:17.972Z,100392.88
2023-07-21T03:52:44.597Z,100436.28
2023-07-21T03:55:11.231Z,100453.16
2023-07-21T03:57:37.846Z,100447.28
2023-07-21T04:00:07.018Z,100453.06
2023-07-21T04:02:33.692Z,100458.53
2023-07-21T04:05:00.383Z,100443.09
2023-07-21T04:07:27.057Z,100326.28
2023-07-21T04:09:53.797Z,100349.19
2023-07-21T04:12:20.390Z,100449.25
2023-07-21T04:14:47.005Z,100444.84
2023-07-21T04:17:13.699Z,100440.56
2023-07-21T04:19:40.370Z,100434.31
2023-07-21T04:22:07.174Z,100429.22
2023-07-21T04:24:35.401Z,100442.44
2023-07-21T04:27:02.149Z,100452.13
2023-07-21T04:29:36.472Z,100419.34
2023-07-21T04:32:04.041Z,100432.25
2023-07-21T04:34:32.240Z,100387.91
2023-07-21T04:36:58.910Z,100464.59
2023-07-21T04:39:25.599Z,100424.66
2023-07-21T04:41:52.248Z,100395.97
2023-07-21T04:44:18.853Z,100462.06
2023-07-21T04:46:46.326Z,100477.97
2023-07-21T04:49:14.690Z,100477.31
2023-07-21T04:51:41.457Z,100476.31
2023-07-21T04:54:08.517Z,100300.03
2023-07-21T04:56:36.240Z,100417.00
2023-07-21T04:59:02.909Z,100436.16
2023-07-21T05:01:29.733Z,100454.22
2023-07-21T05:03:56.451Z,100498.75
2023-07-21T05:06:23.463Z,100505.38
2023-07-21T05:08:50.650Z,100518.69
2023-07-21T05:11:17.364Z,100475.03
2023-07-21T05:13:46.410Z,100500.78
2023-07-21T05:16:13.066Z,100447.34
2023-07-21T05:18:40.494Z,100512.56
2023-07-21T05:21:07.497Z,100466.97
2023-07-21T05:23:35.761Z,100469.91
2023-07-21T05:26:03.427Z,100523.25
2023-07-21T05:28:30.522Z,100512.72
2023-07-21T05:30:58.207Z,100485.53
2023-07-21T05:33:25.365Z,100461.22
2023-07-21T05:35:52.226Z,100531.41
2023-07-21T05:38:18.867Z,100520.06
2023-07-21T05:40:45.605Z,100477.81
2023-07-21T05:43:12.717Z,100518.72
2023-07-21T05:45:40.675Z,100473.09
2023-07-21T05:48:11.193Z,100522.06
2023-07-21T05:50:38.626Z,100481.44
2023-07-21T05:53:05.909Z,100458.91
2023-07-21T05:55:32.774Z,100522.53
2023-07-21T05:58:00.173Z,100498.09
2023-07-21T06:00:27.224Z,100574.84
2023-07-21T06:02:53.894Z,100598.59
2023-07-21T06:05:20.840Z,100618.03
2023-07-21T06:07:47.500Z,100601.97
2023-07-21T06:10:14.255Z,100584.88
2023-07-21T06:12:40.877Z,100634.38
2023-07-21T06:15:09.493Z,100622.81
2023-07-21T06:17:36.152Z,100636.09
2023-07-21T06:20:02.923Z,100678.06
2023-07-21T06:22:29.972Z,100586.97
2023-07-21T06:24:56.611Z,100640.81
2023-07-21T06:27:23.453Z,100706.97
2023-07-21T06:29:50.101Z,100665.81
2023-07-21T06:32:16.954Z,100711.22
2023-07-21T06:34:43.732Z,100706.25
2023-07-21T06:37:10.398Z,100691.63
2023-07-21T06:39:37.093Z,100715.28
2023-07-21T06:42:06.186Z,100722.47
2023-07-21T06:44:33.814Z,100688.97
2023-07-21T06:47:00.436Z,100684.72
2023-07-21T06:49:27.332Z,100661.28
2023-07-21T06:51:54.056Z,100719.44
2023-07-21T06:54:20.747Z,100715.34
2023-07-21T06:56:49.878Z,100705.00
2023-07-21T06:59:16.668Z,100644.97
2023-07-21T07:01:43.943Z,100684.75
2023-07-21T07:04:10.621Z,100714.84
2023-07-21T07:06:37.767Z,100729.78
2023-07-21T07:09:04.490Z,100737.44
2023-07-21T07:11:31.538Z,100751.19
2023-07-21T07:13:58.130Z,100766.94
2023-07-21T07:16:24.795Z,100771.88
2023-07-21T07:18:51.501Z,100810.31
2023-07-21T07:21:18.218Z,100820.88
2023-07-21T07:23:44.847Z,100819.00
2023-07-21T07:26:11.476Z,100779.06
2023-07-21T07:28:40.281Z,100815.31
2023-07-21T07:31:07.996Z,100810.16
2023-07-21T07:33:34.761Z,100818.34
2023-07-21T07:36:01.798Z,100803.66
2023-07-21T07:38:31.982Z,100818.97
2023-07-21T07:41:07.268Z,100825.91
2023-07-21T07:43:34.281Z,100821.84
2023-07-21T07:46:02.801Z,100815.25
2023-07-21T07:48:29.531Z,100765.44
2023-07-21T07:50:56.442Z,100807.06
2023-07-21T07:53:23.238Z,100832.19
2023-07-21T07:55:50.239Z,100834.97
2023-07-21T07:58:17.008Z,100813.72
2023-07-21T08:00:44.528Z,100817.94
2023-07-21T08:03:12.300Z,100781.44
2023-07-21T08:05:41.241Z,100824.47
2023-07-21T08:08:13.489Z,100805.59
2023-07-21T08:10:43.038Z,100765.28
2023-07-21T08:13:09.993Z,100835.66
2023-07-21T08:15:36.798Z,100839.34
2023-07-21T08:18:04.475Z,100875.13
2023-07-21T08:20:31.197Z,100762.97
2023-07-21T08:22:59.712Z,100831.44
2023-07-21T08:25:27.563Z,100853.28
2023-07-21T08:27:54.566Z,100859.56
2023-07-21T08:30:21.363Z,100883.38
2023-07-21T08:32:48.234Z,100887.94
2023-07-21T08:35:14.841Z,100890.31
2023-07-21T08:37:41.459Z,100897.94
2023-07-21T08:40:09.783Z,100867.78
2023-07-21T08:42:37.335Z,100912.03
2023-07-21T08:45:06.533Z,100896.88
2023-07-21T08:47:33.936Z,100897.06
2023-07-21T08:50:00.921Z,100877.97
2023-07-21T08:52:27.779Z,100868.44
2023-07-21T08:54:57.290Z,100898.09
2023-07-21T08:57:24.265Z,100905.38
2023-07-21T08:59:51.723Z,100941.75
2023-07-21T09:02:18.411Z,100815.44
2023-07-21T09:04:46.388Z,100905.94
2023-07-21T09:07:13.156Z,100887.13
2023-07-21T09:09:39.781Z,100906.25
2023-07-21T09:12:12.964Z,100931.13
2023-07-21T09:14:41.720Z,100899.59
2023-07-21T09:17:12.455Z,100936.97
2023-07-21T09:19:41.497Z,100938.31
2023-07-21T09:22:08.701Z,100935.69
2023-07-21T09:24:36.575Z,100929.50
2023-07-21T09:27:20.492Z,100933.50
2023-07-21T09:29:47.597Z,100934.41
2023-07-21T09:32:15.941Z,100934.69
2023-07-21T09:35:06.124Z,100922.19
2023-07-21T09:37:34.932Z,100923.94
2023-07-21T09:40:11.086Z,100949.75
2023-07-21T09:42:40.215Z,100911.53
2023-07-21T09:45:07.512Z,100959.59
2023-07-21T09:47:34.394Z,100962.19
2023-07-21T09:50:01.186Z,100869.31
2023-07-21T09:52:29.446Z,100945.06
2023-07-21T09:55:10.688Z,100937.63
2023-07-21T09:57:42.975Z,100890.28
2023-07-21T10:00:14.589Z,100911.81
2023-07-21T10:02:53.758Z,100944.50
2023-07-21T10:05:20.984Z,100951.09
2023-07-21T10:07:51.094Z,100903.09
2023-07-21T10:10:19.863Z,100948.94
2023-07-21T10:12:53.619Z,100945.09
2023-07-21T10:15:32.444Z,100958.41
2023-07-21T10:18:02.364Z,100951.19
2023-07-21T10:20:42.603Z,100955.72
2023-07-21T10:23:10.880Z,100943.38
2023-07-21T10:25:52.780Z,100949.00
2023-07-21T10:28:31.447Z,100945.06
2023-07-21T10:31:24.751Z,100939.22
2023-07-21T10:34:07.257Z,100944.53
2023-07-21T10:36:43.698Z,100901.19
2023-07-21T10:39:12.456Z,100925.50
2023-07-21T10:41:42.778Z,100932.50
2023-07-21T10:44:13.583Z,100907.38
2023-07-21T10:46:42.297Z,100935.47
2023-07-21T10:49:16.259Z,100858.13
2023-07-21T10:51:45.469Z,100939.56
2023-07-21T10:54:14.461Z,100936.03
2023-07-21T10:56:43.263Z,100919.53
2023-07-21T10:59:14.433Z,100911.22
2023-07-21T11:01:42.585Z,100862.56
2023-07-21T11:04:09.947Z,100896.81
2023-07-21T11:06:43.853Z,100858.31
2023-07-21T11:09:14.075Z,100910.19
2023-07-21T11:11:48.075Z,100901.09
2023-07-21T11:14:17.882Z,100903.78
2023-07-21T11:16:53.529Z,100897.63
2023-07-21T11:19:21.585Z,100893.06
2023-07-21T11:21:50.813Z,100851.19
2023-07-21T11:24:19.759Z,100880.38
2023-07-21T11:26:48.179Z,100894.19
2023-07-21T11:29:16.479Z,100892.69
2023-07-21T11:31:44.026Z,100901.88
2023-07-21T11:34:24.975Z,100898.09
2023-07-21T11:37:01.664Z,100898.88
2023-07-21T11:39:29.955Z,100831.00
2023-07-21T11:41:58.201Z,100849.97
2023-07-21T11:44:36.791Z,100892.97
2023-07-21T11:47:11.918Z,100895.94
2023-07-21T11:49:43.336Z,100900.75
2023-07-21T11:52:11.538Z,100806.38
2023-07-21T11:54:43.712Z,100899.97
2023-07-21T11:57:12.250Z,100885.97
2023-07-21T11:59:39.406Z,100880.56
2023-07-21T12:02:11.115Z,100878.84
2023-07-21T12:04:39.638Z,100837.50
2023-07-21T12:07:08.667Z,100850.69
2023-07-21T12:09:35.912Z,100865.78
2023-07-21T12:12:02.816Z,100841.22
2023-07-21T12:14:31.048Z,100819.56
2023-07-21T12:16:58.130Z,100852.44
2023-07-21T12:19:25.812Z,100856.34
2023-07-21T12:21:56.119Z,100854.91
2023-07-21T12:24:23.214Z,100860.38
2023-07-21T12:26:49.954Z,100865.91
2023-07-21T12:29:25.789Z,100860.22
2023-07-21T12:32:00.655Z,100783.91
2023-07-21T12:34:27.762Z,100829.06
2023-07-21T12:36:55.073Z,100857.47
2023-07-21T12:39:22.086Z,100861.63
2023-07-21T12:41:48.812Z,100875.78
2023-07-21T12:44:15.564Z,100834.03
2023-07-21T12:46:43.004Z,100874.38
2023-07-21T12:49:10.126Z,100830.03
2023-07-21T12:51:36.836Z,100902.41
2023-07-21T12:54:03.604Z,100835.19
2023-07-21T12:56:30.291Z,100878.97
2023-07-21T12:58:56.971Z,100891.63
2023-07-21T13:01:23.700Z,100846.41
2023-07-21T13:03:50.727Z,100838.13
2023-07-21T13:06:17.879Z,100890.94
2023-07-21T13:08:44.525Z,100895.81
2023-07-21T13:11:11.170Z,100873.84
2023-07-21T13:13:37.880Z,100868.94
2023-07-21T13:16:04.744Z,100858.13
2023-07-21T13:18:31.470Z,100845.22
2023-07-21T13:20:58.268Z,100839.91
2023-07-21T13:23:24.964Z,100829.22
2023-07-21T13:25:51.682Z,100831.78
2023-07-21T13:28:18.354Z,100825.53
2023-07-21T13:30:47.280Z,100795.25
2023-07-21T13:33:14.397Z,100825.06
2023-07-21T13:35:41.222Z,100817.16
2023-07-21T13:38:08.595Z,100808.38
2023-07-21T13:40:35.214Z,100804.84
2023-07-21T13:43:01.923Z,100770.53
2023-07-21T13:45:28.599Z,100798.91
2023-07-21T13:47:55.414Z,100801.22
2023-07-21T13:50:22.176Z,100796.16
2023-07-21T13:52:48.903Z,100751.63
2023-07-21T13:55:15.600Z,100765.25
2023-07-21T13:57:42.572Z,100786.91
2023-07-21T14:00:19.062Z,100796.63
2023-07-21T14:02:49.104Z,100769.59
2023-07-21T14:05:16.127Z,100751.78
2023-07-21T14:07:43.153Z,100785.22
2023-07-21T14:10:10.625Z,100787.28
2023-07-21T14:12:37.436Z,100738.03
2023-07-21T14:15:05.231Z,100784.97
2023-07-21T14:17:32.023Z,100777.06
2023-07-21T14:19:58.808Z,100779.22
2023-07-21T14:22:25.510Z,100783.25
2023-07-21T14:24:52.232Z,100772.13
2023-07-21T14:27:18.922Z,100770.19
2023-07-21T14:29:47.315Z,100750.19
2023-07-21T14:32:14.026Z,100760.06
2023-07-21T14:34:40.721Z,100711.69
2023-07-21T14:37:07.598Z,100759.44
2023-07-21T14:39:34.233Z,100738.56
2023-07-21T14:42:01.198Z,100734.25
2023-07-21T14:44:28.941Z,100761.16
2023-07-21T14:46:55.621Z,100757.03
2023-07-21T14:49:22.481Z,100699.88
2023-07-21T14:51:49.121Z,100758.66
2023-07-21T14:54:15.870Z,100755.13
2023-07-21T14:56:44.740Z,100767.50
2023-07-21T14:59:11.904Z,100737.94
2023-07-21T15:01:38.997Z,100688.66
2023-07-21T15:04:05.720Z,100765.09
2023-07-21T15:06:32.520Z,100766.34
2023-07-21T15:08:59.522Z,100773.50
2023-07-21T15:11:29.123Z,100774.00
2023-07-21T15:13:55.805Z,100776.53
2023-07-21T15:16:22.811Z,100768.53
2023-07-21T15:18:49.493Z,100766.75
2023-07-21T15:21:16.128Z,100727.75
2023-07-21T15:23:42.841Z,100772.06
2023-07-21T15:26:09.566Z,100758.00
2023-07-21T15:28:36.146Z,100764.84
2023-07-21T15:31:10.293Z,100754.88
2023-07-21T15:33:37.437Z,100773.19
2023-07-21T15:36:04.544Z,100766.66
2023-07-21T15:38:31.913Z,100714.81
2023-07-21T15:40:59.457Z,100775.44
2023-07-21T15:43:26.603Z,100777.97
2023-07-21T15:45:53.762Z,100774.28
2023-07-21T15:48:20.775Z,100738.97
2023-07-21T15:50:47.557Z,100747.59
2023-07-21T15:53:14.281Z,100771.38
2023-07-21T15:55:40.858Z,100765.19
2023-07-21T15:58:11.979Z,100774.22
2023-07-21T16:00:38.714Z,100720.31
2023-07-21T16:03:06.074Z,100766.13
2023-07-21T16:05:33.077Z,100794.69
2023-07-21T16:08:00.049Z,100775.66
2023-07-21T16:10:26.924Z,100784.38
2023-07-21T16:12:53.716Z,100789.72
2023-07-21T16:15:20.410Z,100787.19
2023-07-21T16:17:48.184Z,100789.09
2023-07-21T16:20:15.010Z,100709.44
2023-07-21T16:22:42.247Z,100792.31
2023-07-21T16:25:11.618Z,100745.28
2023-07-21T16:27:38.413Z,100759.03
2023-07-21T16:30:05.719Z,100711.38
2023-07-21T16:32:32.366Z,100793.53
2023-07-21T16:35:00.261Z,100753.44
2023-07-21T16:37:26.950Z,100783.59
2023-07-21T16:39:54.949Z,100770.44
2023-07-21T16:42:21.910Z,100712.25
2023-07-21T16:44:48.546Z,100776.09
2023-07-21T16:47:15.184Z,100762.44
2023-07-21T16:49:42.101Z,100789.31
2023-07-21T16:52:09.003Z,100782.50
2023-07-21T16:54:36.953Z,100792.06
2023-07-21T16:57:03.687Z,100742.75
2023-07-21T16:59:32.120Z,100734.69
2023-07-21T17:02:01.370Z,100798.09
2023-07-21T17:04:33.181Z,100803.59
2023-07-21T17:07:00.775Z,100810.94
2023-07-21T17:09:27.469Z,100769.53
2023-07-21T17:11:54.232Z,100793.00
2023-07-21T17:14:20.929Z,100813.63
2023-07-21T17:16:47.964Z,100804.69
2023-07-21T17:19:15.016Z,100798.88
2023-07-21T17:21:44.205Z,100799.41
2023-07-21T17:24:11.266Z,100802.66
2023-07-21T17:26:37.975Z,100781.53
2023-07-21T17:29:04.592Z,100815.38
2023-07-21T17:31:31.432Z,100809.84
2023-07-21T17:33:58.190Z,100816.75
2023-07-21T17:36:24.824Z,100821.94
2023-07-21T17:38:51.614Z,100832.38
2023-07-21T17:41:18.244Z,100809.63
2023-07-21T17:43:44.886Z,100844.06
2023-07-21T17:46:11.762Z,100841.47
2023-07-21T17:48:38.484Z,100798.25
2023-07-21T17:51:05.252Z,100836.50
2023-07-21T17:53:32.037Z,100815.59
2023-07-21T17:55:58.721Z,100843.88
2023-07-21T17:58:25.301Z,100745.97
2023-07-21T18:00:52.122Z,100756.94
2023-07-21T18:03:19.575Z,100749.44
2023-07-21T18:05:47.466Z,100726.72
2023-07-21T18:08:14.155Z,100695.19
2023-07-21T18:10:40.745Z,100652.47
2023-07-21T18:13:07.401Z,100531.84
2023-07-21T18:15:38.243Z,100466.25
2023-07-21T18:18:05.488Z,100496.19
2023-07-21T18:20:35.470Z,100378.06
2023-07-21T18:23:03.776Z,100247.09
2023-07-21T18:25:30.874Z,100107.50
2023-07-21T18:27:57.757Z,100185.69
2023-07-21T18:30:24.788Z,100093.50
2023-07-21T18:32:52.512Z,100092.88
2023-07-21T18:35:20.926Z,100080.50
2023-07-21T18:37:48.955Z,100044.03
2023-07-21T18:40:17.032Z,100084.09
2023-07-21T18:42:50.954Z,100119.78
2023-07-21T18:45:21.898Z,100111.91
2023-07-21T18:47:49.596Z,100064.19
2023-07-21T18:50:20.394Z,100082.59
2023-07-21T18:52:51.285Z,100110.63
2023-07-21T18:55:21.477Z,100119.13
2023-07-21T18:57:50.075Z,100126.09
2023-07-21T19:00:17.309Z,100117.81
2023-07-21T19:02:44.539Z,100142.47
2023-07-21T19:05:11.851Z,100148.56
2023-07-21T19:07:38.824Z,100112.72
2023-07-21T19:10:09.323Z,100152.94
2023-07-21T19:12:36.345Z,100152.63
2023-07-21T19:15:03.711Z,100123.94
2023-07-21T19:17:30.656Z,100146.22
2023-07-21T19:19:57.393Z,100148.31
2023-07-21T19:22:24.103Z,100089.81
2023-07-21T19:24:50.811Z,100163.94
2023-07-21T19:27:17.477Z,100112.44
2023-07-21T19:29:44.133Z,100179.47
2023-07-21T19:32:16.677Z,100086.53
2023-07-21T19:34:45.504Z,100162.59
2023-07-21T19:37:12.623Z,100157.16
2023-07-21T19:39:39.307Z,100162.25
2023-07-21T19:42:07.112Z,100167.50
2023-07-21T19:44:37.083Z,100180.06
2023-07-21T19:47:03.902Z,100180.25
2023-07-21T19:49:30.565Z,100146.56
2023-07-21T19:51:57.848Z,100194.47
2023-07-21T19:54:24.685Z,100204.00
2023-07-21T19:56:51.358Z,100196.13
2023-07-21T19:59:18.477Z,100162.91
2023-07-21T20:01:45.669Z,100142.38
2023-07-21T20:04:12.583Z,100130.34
2023-07-21T20:06:39.472Z,100177.06
2023-07-21T20:09:06.202Z,100230.00
2023-07-21T20:11:33.403Z,100220.00
2023-07-21T20:14:00.158Z,100136.88
2023-07-21T20:16:26.847Z,100192.75
2023-07-21T20:18:53.476Z,100232.34
2023-07-21T20:21:20.228Z,100187.34
2023-07-21T20:23:46.831Z,100196.31
2023-07-21T20:26:13.470Z,100255.03
2023-07-21T20:28:40.127Z,100203.31
2023-07-21T20:31:06.715Z,100247.34
2023-07-21T20:33:33.714Z,100208.38
2023-07-21T20:36:00.329Z,100253.28
2023-07-21T20:38:31.706Z,100246.28
2023-07-21T20:41:08.422Z,100223.13
2023-07-21T20:43:35.992Z,100195.88
2023-07-21T20:46:03.114Z,100237.34
2023-07-21T20:48:29.914Z,100268.09
2023-07-21T20:50:57.578Z,100251.97
2023-07-21T20:53:25.768Z,100260.25
2023-07-21T20:55:56.835Z,100273.00
2023-07-21T20:58:24.360Z,100293.84
2023-07-21T21:00:59.423Z,100277.03
2023-07-21T21:03:26.377Z,100175.41
2023-07-21T21:06:00.229Z,100261.59
2023-07-21T21:08:27.640Z,100264.16
2023-07-21T21:10:55.018Z,100285.69
2023-07-21T21:13:22.743Z,100296.38
2023-07-21T21:15:49.838Z,100255.03
2023-07-21T21:18:16.854Z,100301.47
2023-07-21T21:20:45.784Z,100268.41
2023-07-21T21:23:13.474Z,100326.56
2023-07-21T21:25:40.340Z,100329.09
2023-07-21T21:28:08.470Z,100315.72
2023-07-21T21:30:35.157Z,100343.88
2023-07-21T21:33:01.854Z,100352.00
2023-07-21T21:35:28.525Z,100303.16
2023-07-21T21:37:55.114Z,100322.84
2023-07-21T21:40:21.717Z,100364.22
2023-07-21T21:42:48.513Z,100332.94
2023-07-21T21:45:15.096Z,100256.25
2023-07-21T21:47:41.742Z,100354.13
2023-07-21T21:50:08.692Z,100382.50
2023-07-21T21:52:35.360Z,100349.53
2023-07-21T21:55:02.088Z,100285.69
2023-07-21T21:57:28.994Z,100355.47
2023-07-21T21:59:55.671Z,100299.69
2023-07-21T22:02:22.783Z,100318.59
2023-07-21T22:04:50.166Z,100338.16
2023-07-21T22:07:16.939Z,100300.63
2023-07-21T22:09:43.683Z,100302.19
2023-07-21T22:12:12.671Z,100357.84
2023-07-21T22:14:54.624Z,100351.19
2023-07-21T22:17:23.373Z,100361.53
2023-07-21T22:19:59.849Z,100359.31
2023-07-21T22:22:36.065Z,100360.66
2023-07-21T22:25:04.388Z,100297.66
2023-07-21T22:27:31.027Z,100350.19
2023-07-21T22:29:57.644Z,100327.66
2023-07-21T22:32:24.474Z,100289.63
2023-07-21T22:34:51.335Z,100313.16
2023-07-21T22:37:17.963Z,100302.59
2023-07-21T22:39:44.603Z,100336.81
2023-07-21T22:42:11.528Z,100153.84
2023-07-21T22:44:38.191Z,100347.16
2023-07-21T22:47:04.929Z,100343.28
2023-07-21T22:49:31.573Z,100349.16
2023-07-21T22:51:58.225Z,100353.25
2023-07-21T22:54:24.905Z,100263.38
2023-07-21T22:56:52.101Z,100359.09
2023-07-21T22:59:18.756Z,100355.72
2023-07-21T23:01:45.439Z,100364.19
2023-07-21T23:04:12.100Z,100277.41
2023-07-21T23:06:40.947Z,100234.47
2023-07-21T23:09:08.973Z,100342.72
2023-07-21T23:11:35.816Z,100275.75
2023-07-21T23:14:02.457Z,100352.41
2023-07-21T23:16:30.043Z,100190.44
2023-07-21T23:18:56.909Z,100333.28
2023-07-21T23:21:23.517Z,100336.00
2023-07-21T23:23:50.074Z,100354.19
2023-07-21T23:26:16.937Z,100358.25
2023-07-21T23:28:43.668Z,100342.06
2023-07-21T23:31:10.314Z,100367.41
2023-07-21T23:33:36.949Z,100352.41
2023-07-21T23:36:03.735Z,100334.19
2023-07-21T23:38:31.484Z,100288.25
2023-07-21T23:40:58.137Z,100330.81
2023-07-21T23:43:25.165Z,100348.81
2023-07-21T23:45:57.953Z,100318.97
2023-07-21T23:48:26.304Z,100344.50
2023-07-21T23:50:52.936Z,100314.44
2023-07-21T23:53:19.604Z,100313.41
2023-07-21T23:55:46.650Z,100269.16
2023-07-21T23:58:13.323Z,100332.28
